createdAt,value
2019-02-08T00:00:35.034Z,5.80
2019-02-08T00:03:03.231Z,5.80
2019-02-08T00:05:31.411Z,5.70
2019-02-08T00:07:59.956Z,5.70
2019-02-08T00:10:28.152Z,5.70
2019-02-08T00:12:56.728Z,5.60
2019-02-08T00:15:25.222Z,5.60
2019-02-08T00:17:53.407Z,5.60
2019-02-08T00:20:22.251Z,5.70
2019-02-08T00:22:50.463Z,5.60
2019-02-08T00:25:19.965Z,5.70
2019-02-08T00:27:48.152Z,5.70
2019-02-08T00:30:27.919Z,5.60
2019-02-08T00:32:56.108Z,5.60
2019-02-08T00:35:24.303Z,5.80
2019-02-08T00:37:52.499Z,5.80
2019-02-08T00:40:27.068Z,5.80
2019-02-08T00:42:56.949Z,5.70
2019-02-08T00:45:25.135Z,5.70
2019-02-08T00:47:53.326Z,5.90
2019-02-08T00:50:26.903Z,5.90
2019-02-08T00:52:55.175Z,5.90
2019-02-08T00:55:23.372Z,5.80
2019-02-08T00:57:51.603Z,5.70
2019-02-08T01:00:19.975Z,5.70
2019-02-08T01:02:49.404Z,5.70
2019-02-08T01:05:23.630Z,5.80
2019-02-08T01:07:51.959Z,5.80
2019-02-08T01:10:22.604Z,5.80
2019-02-08T01:12:50.795Z,5.90
2019-02-08T01:15:20.481Z,5.90
2019-02-08T01:17:48.668Z,6.00
2019-02-08T01:20:18.808Z,6.00
2019-02-08T01:22:47.008Z,6.00
2019-02-08T01:25:20.175Z,6.00
2019-02-08T01:27:48.742Z,5.90
2019-02-08T01:30:21.794Z,6.00
2019-02-08T01:32:49.975Z,6.10
2019-02-08T01:35:19.212Z,6.20
2019-02-08T01:37:47.412Z,6.30
2019-02-08T01:40:17.749Z,6.30
2019-02-08T01:42:45.943Z,6.40
2019-02-08T01:45:16.771Z,6.60
2019-02-08T01:47:44.972Z,6.60
2019-02-08T01:50:16.422Z,6.70
2019-02-08T01:52:44.619Z,6.80
2019-02-08T01:55:12.976Z,6.80
2019-02-08T01:57:41.176Z,6.80
2019-02-08T02:00:40.819Z,6.70
2019-02-08T02:03:09.535Z,6.70
2019-02-08T02:05:37.802Z,6.80
2019-02-08T02:08:06.496Z,6.80
2019-02-08T02:10:39.595Z,6.70
2019-02-08T02:13:08.040Z,6.60
2019-02-08T02:15:36.231Z,6.60
2019-02-08T02:18:05.272Z,6.50
2019-02-08T02:20:38.175Z,6.50
2019-02-08T02:23:07.401Z,6.40
2019-02-08T02:25:35.600Z,6.40
2019-02-08T02:28:04.524Z,6.50
2019-02-08T02:30:34.470Z,6.50
2019-02-08T02:33:02.651Z,6.50
2019-02-08T02:35:30.851Z,6.60
2019-02-08T02:37:59.053Z,6.60
2019-02-08T02:40:27.240Z,6.60
2019-02-08T02:42:55.444Z,6.50
2019-02-08T02:45:26.434Z,6.50
2019-02-08T02:47:54.699Z,6.60
2019-02-08T02:50:22.895Z,6.60
2019-02-08T02:52:51.087Z,6.70
2019-02-08T02:55:22.025Z,6.70
2019-02-08T02:57:50.223Z,6.70
2019-02-08T03:00:27.136Z,6.60
2019-02-08T03:02:55.343Z,6.50
2019-02-08T03:05:23.523Z,6.40
2019-02-08T03:07:51.727Z,6.40
2019-02-08T03:10:21.351Z,6.50
2019-02-08T03:12:49.552Z,6.40
2019-02-08T03:15:19.484Z,6.40
2019-02-08T03:17:47.663Z,6.50
2019-02-08T03:20:18.116Z,6.60
2019-02-08T03:22:46.304Z,6.70
2019-02-08T03:25:19.589Z,6.80
2019-02-08T03:27:47.855Z,6.80
2019-02-08T03:30:20.048Z,6.80
2019-02-08T03:32:48.237Z,6.90
2019-02-08T03:35:24.300Z,6.90
2019-02-08T03:37:52.495Z,6.90
2019-02-08T03:40:28.987Z,6.90
2019-02-08T03:42:57.767Z,7.00
2019-02-08T03:45:27.668Z,7.00
2019-02-08T03:47:55.857Z,7.00
2019-02-08T03:50:24.783Z,7.10
2019-02-08T03:52:54.017Z,7.10
2019-02-08T03:55:22.955Z,7.10
2019-02-08T03:57:51.143Z,7.20
2019-02-08T04:00:29.287Z,7.20
2019-02-08T04:02:57.482Z,7.20
2019-02-08T04:05:25.679Z,7.20
2019-02-08T04:07:53.919Z,7.30
2019-02-08T04:10:22.147Z,7.30
2019-02-08T04:12:50.339Z,7.30
2019-02-08T04:15:23.009Z,7.20
2019-02-08T04:17:51.217Z,7.20
2019-02-08T04:20:21.983Z,7.10
2019-02-08T04:22:50.188Z,7.10
2019-02-08T04:25:18.448Z,7.00
2019-02-08T04:27:46.638Z,7.00
2019-02-08T04:30:24.288Z,6.90
2019-02-08T04:32:52.543Z,6.90
2019-02-08T04:35:20.747Z,6.90
2019-02-08T04:37:48.936Z,6.90
2019-02-08T04:40:19.273Z,6.90
2019-02-08T04:42:47.744Z,6.90
2019-02-08T04:45:15.952Z,6.90
2019-02-08T04:47:44.309Z,6.90
2019-02-08T04:50:18.062Z,6.90
2019-02-08T04:52:46.248Z,6.80
2019-02-08T04:55:14.451Z,6.80
2019-02-08T04:57:42.665Z,6.80
2019-02-08T05:00:22.977Z,6.70
2019-02-08T05:02:51.174Z,6.70
2019-02-08T05:05:19.368Z,6.70
2019-02-08T05:07:47.554Z,6.70
2019-02-08T05:10:21.115Z,6.70
2019-02-08T05:12:49.584Z,6.70
2019-02-08T05:15:17.776Z,6.70
2019-02-08T05:17:45.965Z,6.70
2019-02-08T05:20:16.795Z,6.70
2019-02-08T05:22:44.995Z,6.70
2019-02-08T05:25:13.720Z,6.80
2019-02-08T05:27:41.921Z,6.80
2019-02-08T05:30:13.535Z,6.80
2019-02-08T05:32:41.732Z,6.80
2019-02-08T05:35:10.391Z,6.80
2019-02-08T05:37:38.597Z,6.80
2019-02-08T05:40:12.923Z,6.80
2019-02-08T05:42:41.103Z,6.80
2019-02-08T05:45:15.056Z,6.80
2019-02-08T05:47:43.261Z,6.70
2019-02-08T05:50:23.298Z,6.80
2019-02-08T05:52:51.491Z,6.80
2019-02-08T05:55:24.591Z,7.00
2019-02-08T05:57:52.776Z,7.00
2019-02-08T06:00:28.406Z,7.00
2019-02-08T06:02:56.659Z,7.00
2019-02-08T06:05:24.861Z,7.00
2019-02-08T06:07:53.043Z,7.10
2019-02-08T06:10:21.490Z,7.10
2019-02-08T06:12:49.680Z,7.10
2019-02-08T06:15:23.604Z,7.00
2019-02-08T06:17:51.775Z,7.00
2019-02-08T06:20:21.407Z,6.90
2019-02-08T06:22:49.676Z,6.90
2019-02-08T06:25:19.520Z,6.90
2019-02-08T06:27:47.704Z,6.90
2019-02-08T06:30:24.063Z,6.90
2019-02-08T06:32:52.258Z,6.90
2019-02-08T06:35:21.979Z,7.00
2019-02-08T06:37:50.176Z,6.90
2019-02-08T06:40:21.159Z,6.90
2019-02-08T06:42:49.348Z,6.90
2019-02-08T06:45:19.780Z,6.90
2019-02-08T06:47:47.976Z,7.00
2019-02-08T06:50:18.709Z,7.00
2019-02-08T06:52:46.909Z,7.00
2019-02-08T06:55:15.104Z,7.10
2019-02-08T06:57:44.920Z,7.00
2019-02-08T07:00:24.079Z,7.10
2019-02-08T07:02:53.903Z,7.10
2019-02-08T07:05:23.750Z,7.10
2019-02-08T07:07:59.400Z,7.10
2019-02-08T07:10:35.267Z,7.10
2019-02-08T07:13:05.111Z,7.10
2019-02-08T07:15:34.931Z,7.10
2019-02-08T07:18:10.539Z,7.10
2019-02-08T07:20:45.816Z,7.20
2019-02-08T07:23:18.615Z,7.20
2019-02-08T07:25:51.563Z,7.30
2019-02-08T07:28:33.688Z,7.40
2019-02-08T07:31:15.327Z,7.40
2019-02-08T07:33:48.107Z,7.40
2019-02-08T07:36:34.384Z,7.40
2019-02-08T07:39:07.327Z,7.50
2019-02-08T07:41:49.155Z,7.50
2019-02-08T07:44:21.784Z,7.50
2019-02-08T07:46:58.555Z,7.50
2019-02-08T07:49:40.959Z,7.60
2019-02-08T07:52:13.557Z,7.60
2019-02-08T07:57:41.234Z,7.70
2019-02-08T08:00:16.592Z,7.70
2019-02-08T08:03:02.727Z,7.80
2019-02-08T08:05:32.563Z,7.80
2019-02-08T08:08:02.399Z,7.80
2019-02-08T08:10:32.702Z,7.80
2019-02-08T08:13:02.528Z,7.90
2019-02-08T08:15:50.871Z,8.10
2019-02-08T08:18:20.695Z,8.20
2019-02-08T08:21:06.754Z,8.70
2019-02-08T08:23:36.583Z,9.40
2019-02-08T08:26:21.616Z,10.00
2019-02-08T08:29:00.483Z,10.10
2019-02-08T08:31:30.328Z,10.40
2019-02-08T08:34:10.831Z,10.80
2019-02-08T08:36:54.240Z,11.00
2019-02-08T08:39:40.687Z,11.70
2019-02-08T08:42:20.255Z,11.80
2019-02-08T08:45:20.688Z,12.20
2019-02-08T08:48:21.059Z,12.20
2019-02-08T08:51:07.556Z,11.20
2019-02-08T08:53:55.465Z,10.70
2019-02-08T08:56:29.972Z,10.70
2019-02-08T08:59:19.415Z,10.60
2019-02-08T09:02:10.590Z,10.30
2019-02-08T09:04:47.734Z,10.00
2019-02-08T09:07:27.950Z,9.90
2019-02-08T09:10:02.453Z,9.60
2019-02-08T09:12:33.895Z,9.50
2019-02-08T09:15:22.180Z,9.40
2019-02-08T09:18:22.527Z,9.40
2019-02-08T09:21:02.732Z,9.40
2019-02-08T09:23:53.781Z,9.50
2019-02-08T09:26:31.327Z,9.70
2019-02-08T09:29:36.351Z,10.00
2019-02-08T09:32:31.341Z,10.20
2019-02-08T09:35:38.660Z,10.30
2019-02-08T09:38:18.683Z,10.10
2019-02-08T09:41:06.704Z,10.00
2019-02-08T09:43:52.951Z,9.90
2019-02-08T09:46:57.967Z,9.90
2019-02-08T09:49:47.783Z,9.80
2019-02-08T09:52:46.415Z,9.80
2019-02-08T09:55:57.613Z,9.80
2019-02-08T09:58:30.510Z,9.80
2019-02-08T10:01:07.775Z,10.00
2019-02-08T10:04:12.900Z,10.20
2019-02-08T10:07:05.731Z,10.40
2019-02-08T10:09:55.339Z,10.60
2019-02-08T10:12:55.739Z,10.90
2019-02-08T10:15:48.115Z,11.30
2019-02-08T10:18:48.144Z,11.70
2019-02-08T10:21:38.841Z,11.40
2019-02-08T10:24:12.939Z,11.20
2019-02-08T10:26:44.412Z,11.20
2019-02-08T10:29:38.355Z,11.20
2019-02-08T10:32:29.383Z,11.10
2019-02-08T10:35:20.234Z,11.10
2019-02-08T10:38:19.879Z,11.10
2019-02-08T10:41:07.878Z,11.20
2019-02-08T10:43:59.844Z,11.30
2019-02-08T10:46:33.863Z,11.50
2019-02-08T10:49:21.726Z,11.40
2019-02-08T10:52:26.339Z,11.40
2019-02-08T10:55:15.907Z,11.70
2019-02-08T10:58:12.527Z,11.50
2019-02-08T11:00:59.119Z,11.50
2019-02-08T11:04:03.982Z,11.10
2019-02-08T11:07:04.299Z,11.00
2019-02-08T11:10:04.137Z,11.00
2019-02-08T11:13:08.983Z,11.00
2019-02-08T11:15:58.243Z,11.00
2019-02-08T11:18:47.711Z,10.90
2019-02-08T11:21:15.895Z,10.80
2019-02-08T11:23:44.086Z,10.70
2019-02-08T11:26:12.287Z,10.70
2019-02-08T11:28:40.475Z,10.70
2019-02-08T11:31:08.671Z,10.70
2019-02-08T11:33:36.863Z,10.70
2019-02-08T11:36:05.068Z,10.70
2019-02-08T11:38:33.256Z,10.70
2019-02-08T11:41:01.442Z,10.80
2019-02-08T11:43:29.644Z,10.80
2019-02-08T11:45:57.831Z,10.80
2019-02-08T11:48:26.037Z,10.80
2019-02-08T11:50:54.223Z,10.90
2019-02-08T11:53:22.423Z,10.90
2019-02-08T11:55:50.623Z,11.00
2019-02-08T11:58:18.807Z,11.10
2019-02-08T12:00:48.651Z,11.10
2019-02-08T12:03:16.835Z,11.00
2019-02-08T12:05:45.044Z,10.90
2019-02-08T12:08:13.231Z,10.90
2019-02-08T12:10:41.437Z,11.10
2019-02-08T12:13:09.627Z,11.20
2019-02-08T12:15:57.260Z,11.30
2019-02-08T12:18:25.452Z,11.50
2019-02-08T12:20:53.682Z,11.40
2019-02-08T12:23:21.915Z,11.30
2019-02-08T12:25:50.111Z,11.20
2019-02-08T12:28:18.303Z,11.10
2019-02-08T12:30:46.583Z,11.10
2019-02-08T12:33:14.775Z,11.10
2019-02-08T12:35:42.966Z,11.10
2019-02-08T12:38:11.163Z,11.10
2019-02-08T12:40:39.355Z,11.10
2019-02-08T12:43:07.552Z,11.00
2019-02-08T12:45:35.743Z,10.90
2019-02-08T12:48:04.320Z,10.90
2019-02-08T12:50:32.506Z,10.80
2019-02-08T12:53:00.696Z,10.80
2019-02-08T12:55:28.891Z,10.70
2019-02-08T12:57:57.075Z,10.60
2019-02-08T13:00:28.165Z,10.60
2019-02-08T13:02:56.359Z,10.60
2019-02-08T13:05:24.554Z,10.60
2019-02-08T13:07:52.751Z,10.70
2019-02-08T13:10:25.383Z,10.70
2019-02-08T13:12:53.568Z,10.60
2019-02-08T13:15:21.772Z,10.50
2019-02-08T13:17:49.958Z,10.60
2019-02-08T13:20:21.964Z,10.60
2019-02-08T13:22:50.172Z,10.60
2019-02-08T13:25:18.542Z,10.60
2019-02-08T13:28:07.780Z,10.70
2019-02-08T13:30:36.440Z,10.70
2019-02-08T13:33:04.637Z,10.70
2019-02-08T13:35:32.824Z,10.80
2019-02-08T13:38:01.096Z,10.80
2019-02-08T13:40:30.330Z,10.70
2019-02-08T13:42:58.524Z,10.60
2019-02-08T13:45:26.723Z,10.70
2019-02-08T13:47:54.922Z,10.60
2019-02-08T13:50:26.365Z,10.60
2019-02-08T13:52:54.580Z,10.60
2019-02-08T13:55:24.095Z,10.60
2019-02-08T13:57:52.287Z,10.50
2019-02-08T14:00:32.483Z,10.60
2019-02-08T14:03:00.676Z,10.40
2019-02-08T14:05:28.872Z,10.40
2019-02-08T14:07:57.063Z,10.50
2019-02-08T14:10:25.536Z,10.50
2019-02-08T14:12:53.731Z,10.50
2019-02-08T14:15:23.971Z,10.40
2019-02-08T14:18:11.591Z,10.50
2019-02-08T14:20:39.795Z,10.50
2019-02-08T14:23:07.987Z,10.60
2019-02-08T14:25:36.176Z,10.60
2019-02-08T14:28:04.375Z,10.50
2019-02-08T14:30:42.831Z,10.60
2019-02-08T14:33:11.031Z,10.50
2019-02-08T14:35:39.236Z,10.50
2019-02-08T14:38:10.523Z,10.60
2019-02-08T14:40:38.710Z,10.50
2019-02-08T14:43:06.911Z,10.60
2019-02-08T14:45:35.096Z,10.70
2019-02-08T14:48:04.220Z,10.70
2019-02-08T14:50:32.444Z,10.70
2019-02-08T14:53:00.609Z,10.70
2019-02-08T14:55:28.806Z,10.60
2019-02-08T14:57:59.535Z,10.60
2019-02-08T15:00:27.735Z,10.60
2019-02-08T15:02:55.923Z,10.60
2019-02-08T15:05:24.681Z,10.50
2019-02-08T15:07:52.883Z,10.50
2019-02-08T15:10:30.131Z,10.60
2019-02-08T15:13:00.215Z,10.60
2019-02-08T15:15:28.315Z,10.50
2019-02-08T15:17:56.515Z,10.50
2019-02-08T15:20:27.810Z,10.40
2019-02-08T15:22:56.003Z,10.40
2019-02-08T15:25:24.199Z,10.40
2019-02-08T15:27:52.390Z,10.30
2019-02-08T15:30:29.704Z,10.30
2019-02-08T15:32:57.887Z,10.30
2019-02-08T15:35:28.519Z,10.20
2019-02-08T15:37:56.791Z,10.20
2019-02-08T15:40:28.031Z,10.10
2019-02-08T15:42:56.307Z,10.10
2019-02-08T15:45:24.521Z,10.10
2019-02-08T15:47:52.695Z,10.10
2019-02-08T15:50:20.904Z,10.10
2019-02-08T15:52:49.092Z,10.00
2019-02-08T15:55:20.115Z,10.00
2019-02-08T15:57:48.313Z,10.00
2019-02-08T16:00:19.439Z,10.00
2019-02-08T16:02:47.645Z,10.00
2019-02-08T16:05:17.870Z,9.90
2019-02-08T16:07:46.076Z,9.90
2019-02-08T16:10:14.531Z,10.00
2019-02-08T16:12:42.720Z,10.00
2019-02-08T16:15:14.176Z,10.00
2019-02-08T16:17:42.363Z,9.90
2019-02-08T16:20:10.543Z,9.90
2019-02-08T16:22:39.307Z,9.90
2019-02-08T16:25:12.415Z,9.90
2019-02-08T16:27:40.611Z,9.90
2019-02-08T16:30:17.852Z,9.90
2019-02-08T16:32:46.055Z,9.80
2019-02-08T16:35:15.778Z,9.80
2019-02-08T16:37:43.971Z,9.80
2019-02-08T16:40:20.391Z,9.80
2019-02-08T16:42:48.587Z,9.80
2019-02-08T16:45:19.516Z,9.90
2019-02-08T16:47:48.187Z,9.90
2019-02-08T16:50:19.211Z,9.90
2019-02-08T16:52:47.403Z,9.90
2019-02-08T16:55:16.135Z,9.90
2019-02-08T16:57:47.794Z,10.00
2019-02-08T17:00:29.657Z,10.10
2019-02-08T17:02:59.489Z,10.10
2019-02-08T17:05:28.528Z,10.10
2019-02-08T17:07:56.715Z,10.00
2019-02-08T17:10:24.916Z,10.10
2019-02-08T17:12:53.419Z,10.10
2019-02-08T17:15:24.217Z,10.20
2019-02-08T17:17:52.405Z,10.10
2019-02-08T17:20:23.859Z,10.10
2019-02-08T17:22:52.059Z,10.10
2019-02-08T17:25:20.253Z,10.10
2019-02-08T17:27:55.164Z,10.10
2019-02-08T17:30:19.912Z,10.10
2019-02-08T17:32:48.095Z,10.20
2019-02-08T17:35:20.847Z,10.10
2019-02-08T17:37:49.115Z,10.20
2019-02-08T17:40:19.759Z,10.20
2019-02-08T17:42:47.979Z,10.20
2019-02-08T17:45:17.995Z,10.20
2019-02-08T17:47:46.196Z,10.20
2019-02-08T17:50:23.110Z,10.10
2019-02-08T17:52:51.316Z,10.10
2019-02-08T17:55:22.010Z,10.10
2019-02-08T17:57:50.215Z,10.20
2019-02-08T18:00:26.187Z,10.20
2019-02-08T18:02:54.390Z,10.30
2019-02-08T18:05:22.588Z,10.20
2019-02-08T18:07:50.767Z,10.10
2019-02-08T18:10:26.127Z,10.20
2019-02-08T18:12:54.311Z,10.10
2019-02-08T18:15:23.839Z,10.10
2019-02-08T18:17:52.039Z,10.10
2019-02-08T18:20:35.136Z,10.10
2019-02-08T18:23:03.616Z,10.00
2019-02-08T18:25:31.811Z,10.00
2019-02-08T18:28:00.004Z,10.00
2019-02-08T18:30:28.283Z,10.10
2019-02-08T18:32:57.051Z,10.10
2019-02-08T18:35:25.255Z,10.10
2019-02-08T18:37:54.123Z,10.10
2019-02-08T18:40:24.155Z,10.10
2019-02-08T18:42:52.359Z,10.10
2019-02-08T18:45:29.119Z,10.00
2019-02-08T18:47:57.319Z,10.00
2019-02-08T18:50:31.339Z,10.00
2019-02-08T18:52:59.603Z,10.00
2019-02-08T18:55:27.783Z,10.00
2019-02-08T18:57:55.973Z,9.90
2019-02-08T19:00:27.075Z,10.00
2019-02-08T19:02:55.263Z,10.00
2019-02-08T19:05:23.464Z,10.00
2019-02-08T19:07:51.653Z,10.00
2019-02-08T19:10:22.955Z,10.00
2019-02-08T19:12:51.187Z,10.10
2019-02-08T19:15:24.099Z,10.10
2019-02-08T19:17:52.319Z,10.10
2019-02-08T19:20:22.492Z,10.10
2019-02-08T19:22:50.691Z,10.10
2019-02-08T19:25:24.443Z,10.10
2019-02-08T19:27:52.649Z,10.00
2019-02-08T19:30:28.106Z,10.10
2019-02-08T19:32:56.364Z,10.10
2019-02-08T19:35:24.560Z,10.10
2019-02-08T19:37:52.767Z,10.10
2019-02-08T19:40:26.680Z,10.10
2019-02-08T19:42:54.871Z,10.00
2019-02-08T19:45:23.083Z,10.00
2019-02-08T19:47:51.271Z,10.00
2019-02-08T19:50:36.055Z,10.10
2019-02-08T19:53:05.287Z,10.10
2019-02-08T19:55:33.479Z,10.00
2019-02-08T19:58:01.678Z,9.90
2019-02-08T20:00:37.783Z,9.90
2019-02-08T20:03:07.070Z,9.80
2019-02-08T20:05:35.299Z,9.80
2019-02-08T20:08:03.493Z,9.80
2019-02-08T20:10:46.947Z,9.90
2019-02-08T20:13:15.132Z,9.90
2019-02-08T20:15:43.577Z,9.90
2019-02-08T20:18:11.759Z,9.80
2019-02-08T20:20:39.956Z,9.80
2019-02-08T20:23:08.159Z,9.70
2019-02-08T20:25:36.916Z,9.70
2019-02-08T20:28:06.366Z,9.70
2019-02-08T20:30:34.564Z,9.70
2019-02-08T20:33:03.036Z,9.60
2019-02-08T20:35:31.207Z,9.60
2019-02-08T20:38:00.247Z,9.60
2019-02-08T20:40:39.794Z,9.60
2019-02-08T20:43:07.979Z,9.70
2019-02-08T20:45:36.914Z,9.70
2019-02-08T20:48:10.507Z,9.70
2019-02-08T20:50:38.714Z,9.70
2019-02-08T20:53:06.902Z,9.60
2019-02-08T20:55:35.100Z,9.70
2019-02-08T20:58:03.772Z,9.80
2019-02-08T21:00:37.454Z,9.90
2019-02-08T21:03:09.031Z,9.70
2019-02-08T21:05:37.224Z,9.80
2019-02-08T21:08:06.360Z,9.80
2019-02-08T21:10:35.007Z,9.90
2019-02-08T21:13:03.207Z,9.90
2019-02-08T21:15:31.396Z,9.90
2019-02-08T21:17:59.595Z,9.90
2019-02-08T21:20:27.796Z,10.00
2019-02-08T21:22:55.992Z,9.90
2019-02-08T21:25:26.515Z,9.90
2019-02-08T21:27:54.775Z,9.90
2019-02-08T21:30:22.974Z,9.90
2019-02-08T21:32:51.164Z,9.90
2019-02-08T21:35:19.799Z,9.90
2019-02-08T21:37:47.998Z,9.90
2019-02-08T21:40:21.455Z,9.80
2019-02-08T21:42:49.803Z,9.70
2019-02-08T21:45:20.439Z,9.70
2019-02-08T21:47:48.635Z,9.70
2019-02-08T21:50:21.358Z,9.60
2019-02-08T21:52:49.559Z,9.50
2019-02-08T21:55:19.592Z,9.40
2019-02-08T21:57:47.795Z,9.40
2019-02-08T22:00:22.119Z,9.20
2019-02-08T22:02:50.371Z,9.20
2019-02-08T22:05:21.211Z,9.10
2019-02-08T22:07:49.411Z,9.10
2019-02-08T22:10:17.608Z,9.20
2019-02-08T22:12:45.795Z,9.10
2019-02-08T22:15:19.785Z,9.20
2019-02-08T22:17:47.981Z,9.30
2019-02-08T22:20:19.110Z,9.40
2019-02-08T22:22:47.304Z,9.40
2019-02-08T22:25:24.363Z,9.50
2019-02-08T22:27:53.124Z,9.40
2019-02-08T22:30:23.241Z,9.30
2019-02-08T22:32:52.559Z,9.20
2019-02-08T22:35:22.294Z,9.20
2019-02-08T22:37:50.479Z,9.20
2019-02-08T22:40:20.429Z,9.20
2019-02-08T22:42:48.679Z,9.20
2019-02-08T22:45:25.315Z,9.20
2019-02-08T22:47:53.504Z,9.30
2019-02-08T22:50:21.695Z,9.30
2019-02-08T22:52:49.956Z,9.30
2019-02-08T22:55:30.546Z,9.20
2019-02-08T22:57:58.807Z,9.10
2019-02-08T23:00:37.783Z,9.00
2019-02-08T23:03:08.592Z,9.00
2019-02-08T23:05:36.843Z,8.90
2019-02-08T23:08:07.032Z,8.70
2019-02-08T23:10:35.227Z,8.70
2019-02-08T23:13:03.483Z,8.70
2019-02-08T23:15:31.684Z,8.70
2019-02-08T23:17:59.871Z,8.70
2019-02-08T23:20:28.073Z,8.70
2019-02-08T23:22:56.282Z,8.70
2019-02-08T23:25:24.479Z,8.60
2019-02-08T23:27:52.696Z,8.50
2019-02-08T23:30:22.217Z,8.50
2019-02-08T23:32:50.405Z,8.50
2019-02-08T23:35:18.599Z,8.50
2019-02-08T23:37:46.788Z,8.40
2019-02-08T23:40:16.327Z,8.30
2019-02-08T23:42:44.525Z,8.30
2019-02-08T23:45:22.627Z,8.20
2019-02-08T23:47:50.844Z,8.20
2019-02-08T23:50:20.223Z,8.20
2019-02-08T23:52:48.443Z,8.10
2019-02-08T23:55:21.712Z,8.10
2019-02-08T23:57:49.913Z,8.10
